This demonstration page uses our WeatherBlox Daily Observations layout. Learn more.

39.01783, -85.05884

Hourly Observations for July 5, 2019

Temp ( °F °C ) Dew Point ( °F °C ) Humidity (%) Winds ( mph kmh ) Pressure ( in mb ) Visibility ( mi km ) Precip ( " mm )
12:52 am 00:52 Hazy 76 24.4 71 21.7 85 85 SSW 5 7 30 1016 6 9.656064 0 0
1:52 am 01:52 Clear with Mist and Fog 74 23.3 71 21.7 91 91 Calm 30 1016 6 9.656064 0 0
2:52 am 02:52 Clear 74 23.3 71 21.7 91 91 SSW 7 11 30 1016 8 12.874752 0 0
3:52 am 03:52 Clear with Mist and Fog 73 22.8 71 21.7 94 94 Calm 30 1016 6 9.656064 0 0
4:52 am 04:52 Clear with Mist and Fog 73 22.8 70 21.1 90 90 SSW 5 7 30 1016 5 8.04672 0 0
5:52 am 05:52 Mostly Cloudy with Mist and Fog 73 22.8 70 21.1 90 90 WSW 6 9 30.03 1017 4 6.437376 0 0
6:52 am 06:52 Partly Cloudy with Mist and Fog 72 22.2 70 21.1 94 94 S 5 7 30.03 1017 3 4.828032 0 0
7:52 am 07:52 Hazy 75 23.9 70 21.1 84 84 SW 3 6 30.03 1017 5 8.04672 0 0
8:52 am 08:52 Mostly Sunny 78 25.6 69 20.6 74 74 Calm 30.03 1017 8 12.874752 0 0
9:52 am 09:52 Sunny 81 27.2 71 21.7 72 72 SSE 6 9 30.06 1018 8 12.874752 0 0
10:52 am 10:52 Sunny 84 28.9 71 21.7 65 65 SSW 6 9 30.03 1017 10 16.09344 0 0
11:52 am 11:52 Partly Cloudy 85 29.4 72 22.2 65 65 SSW 6 9 30.06 1018 10 16.09344 0 0
12:52 pm 12:52 Partly Cloudy 87 30.6 71 21.7 59 59 SSW 5 7 30.06 1018 10 16.09344 0 0
1:52 pm 13:52 Partly Cloudy 88 31.1 71 21.7 57 57 SW 9 15 30.03 1017 10 16.09344 0 0
2:52 pm 14:52 Mostly Cloudy 89 31.7 71 21.7 55 55 SW 10 17 30 1016 10 16.09344 0 0
3:52 pm 15:52 Mostly Cloudy 90 32.2 71 21.7 54 54 SW 7 11 30 1016 10 16.09344 0 0
4:52 pm 16:52 Mostly Cloudy 89 31.7 70 21.1 53 53 SW 12 19 29.97 1015 10 16.09344 0 0
5:52 pm 17:52 Partly Cloudy 89 31.7 71 21.7 55 55 S 9 15 29.97 1015 10 16.09344 0 0
7:52 pm 19:52 Partly Cloudy 87 30.6 70 21.1 57 57 SSW 7 11 29.97 1015 10 16.09344 0 0
8:52 pm 20:52 Partly Cloudy 84 28.9 71 21.7 65 65 WSW 5 7 30 1016 10 16.09344 0 0
9:52 pm 21:52 Partly Cloudy 82 27.8 71 21.7 69 69 SW 5 7 29.97 1015 10 16.09344 0 0
10:52 pm 22:52 Clear 80 26.7 72 22.2 76 76 SW 3 6 30 1016 10 16.09344 0 0
11:52 pm 23:52 Clear 78 25.6 71 21.7 79 79 SW 5 7 29.97 1015 10 16.09344 0 0

Powered by AerisWeather